sensor_id;sensor_type;location;lat;lon;timestamp;P1;durP1;ratioP1;P2;durP2;ratioP2
14346;SDS011;7257;52.158;9.968;2022-12-24T00:00:03;12.13;;;8.90;;
14346;SDS011;7257;52.158;9.968;2022-12-24T00:00:27;12.15;;;8.35;;
14346;SDS011;7257;52.158;9.968;2022-12-24T00:00:48;11.65;;;8.50;;
14346;SDS011;7257;52.158;9.968;2022-12-24T00:01:09;11.23;;;8.55;;
14346;SDS011;7257;52.158;9.968;2022-12-24T00:01:30;10.55;;;8.55;;
14346;SDS011;7257;52.158;9.968;2022-12-24T00:01:51;11.02;;;8.40;;
14346;SDS011;7257;52.158;9.968;2022-12-24T00:02:13;11.98;;;8.80;;
14346;SDS011;7257;52.158;9.968;2022-12-24T00:02:34;12.30;;;9.02;;
14346;SDS011;7257;52.158;9.968;2022-12-24T00:02:55;13.15;;;9.60;;
14346;SDS011;7257;52.158;9.968;2022-12-24T00:03:16;12.60;;;9.27;;
14346;SDS011;7257;52.158;9.968;2022-12-24T00:03:37;13.63;;;9.52;;
14346;SDS011;7257;52.158;9.968;2022-12-24T00:03:59;14.10;;;9.40;;
14346;SDS011;7257;52.158;9.968;2022-12-24T00:04:20;13.82;;;9.93;;
14346;SDS011;7257;52.158;9.968;2022-12-24T00:04:40;12.60;;;9.95;;
14346;SDS011;7257;52.158;9.968;2022-12-24T00:05:01;12.57;;;10.80;;
14346;SDS011;7257;52.158;9.968;2022-12-24T00:05:23;12.70;;;10.10;;
14346;SDS011;7257;52.158;9.968;2022-12-24T00:05:45;13.05;;;10.15;;
14346;SDS011;7257;52.158;9.968;2022-12-24T00:06:06;11.85;;;9.15;;
14346;SDS011;7257;52.158;9.968;2022-12-24T00:06:28;12.60;;;9.63;;
14346;SDS011;7257;52.158;9.968;2022-12-24T00:06:49;12.48;;;9.60;;
14346;SDS011;7257;52.158;9.968;2022-12-24T00:07:11;12.85;;;10.20;;
14346;SDS011;7257;52.158;9.968;2022-12-24T00:07:32;12.15;;;9.73;;
14346;SDS011;7257;52.158;9.968;2022-12-24T00:07:53;12.93;;;9.45;;
14346;SDS011;7257;52.158;9.968;2022-12-24T00:08:14;12.25;;;8.63;;
14346;SDS011;7257;52.158;9.968;2022-12-24T00:08:35;12.40;;;8.63;;
14346;SDS011;7257;52.158;9.968;2022-12-24T00:08:57;13.45;;;8.90;;
14346;SDS011;7257;52.158;9.968;2022-12-24T00:09:18;14.10;;;9.40;;
14346;SDS011;7257;52.158;9.968;2022-12-24T00:09:39;13.98;;;9.00;;
14346;SDS011;7257;52.158;9.968;2022-12-24T00:10:00;12.65;;;8.93;;
14346;SDS011;7257;52.158;9.968;2022-12-24T00:10:22;12.98;;;9.23;;
14346;SDS011;7257;52.158;9.968;2022-12-24T00:10:42;14.90;;;10.38;;
14346;SDS011;7257;52.158;9.968;2022-12-24T00:11:04;14.90;;;10.87;;
14346;SDS011;7257;52.158;9.968;2022-12-24T00:11:25;14.35;;;10.85;;
14346;SDS011;7257;52.158;9.968;2022-12-24T00:11:46;12.30;;;10.37;;
14346;SDS011;7257;52.158;9.968;2022-12-24T00:12:08;12.75;;;9.88;;
14346;SDS011;7257;52.158;9.968;2022-12-24T00:12:29;12.90;;;9.43;;
14346;SDS011;7257;52.158;9.968;2022-12-24T00:12:50;12.30;;;9.13;;
14346;SDS011;7257;52.158;9.968;2022-12-24T00:13:11;12.73;;;9.20;;
14346;SDS011;7257;52.158;9.968;2022-12-24T00:13:33;13.10;;;9.65;;
14346;SDS011;7257;52.158;9.968;2022-12-24T00:13:54;13.25;;;9.68;;
14346;SDS011;7257;52.158;9.968;2022-12-24T00:14:15;12.65;;;9.77;;
14346;SDS011;7257;52.158;9.968;2022-12-24T00:14:36;13.32;;;9.63;;
14346;SDS011;7257;52.158;9.968;2022-12-24T00:14:57;14.68;;;10.15;;
14346;SDS011;7257;52.158;9.968;2022-12-24T00:15:18;15.15;;;11.20;;
14346;SDS011;7257;52.158;9.968;2022-12-24T00:15:41;14.63;;;11.82;;
14346;SDS011;7257;52.158;9.968;2022-12-24T00:16:02;13.38;;;10.88;;
14346;SDS011;7257;52.158;9.968;2022-12-24T00:16:24;12.75;;;10.40;;
14346;SDS011;7257;52.158;9.968;2022-12-24T00:16:45;13.38;;;10.63;;
14346;SDS011;7257;52.158;9.968;2022-12-24T00:17:06;13.77;;;11.27;;
14346;SDS011;7257;52.158;9.968;2022-12-24T00:17:27;14.40;;;11.30;;
14346;SDS011;7257;52.158;9.968;2022-12-24T00:17:48;13.88;;;11.05;;
14346;SDS011;7257;52.158;9.968;2022-12-24T00:18:10;14.35;;;11.02;;
14346;SDS011;7257;52.158;9.968;2022-12-24T00:18:31;14.68;;;10.65;;
14346;SDS011;7257;52.158;9.968;2022-12-24T00:18:52;14.35;;;10.32;;
14346;SDS011;7257;52.158;9.968;2022-12-24T00:19:13;13.57;;;10.07;;
14346;SDS011;7257;52.158;9.968;2022-12-24T00:19:34;13.40;;;10.38;;
14346;SDS011;7257;52.158;9.968;2022-12-24T00:19:57;13.60;;;10.05;;
14346;SDS011;7257;52.158;9.968;2022-12-24T00:20:18;13.85;;;9.70;;
14346;SDS011;7257;52.158;9.968;2022-12-24T00:20:39;17.27;;;9.55;;
14346;SDS011;7257;52.158;9.968;2022-12-24T00:21:00;17.48;;;10.10;;
14346;SDS011;7257;52.158;9.968;2022-12-24T00:21:23;16.23;;;11.00;;
14346;SDS011;7257;52.158;9.968;2022-12-24T00:21:44;16.10;;;11.00;;
14346;SDS011;7257;52.158;9.968;2022-12-24T00:22:05;16.67;;;11.30;;
14346;SDS011;7257;52.158;9.968;2022-12-24T00:22:26;15.93;;;11.65;;
14346;SDS011;7257;52.158;9.968;2022-12-24T00:22:47;15.88;;;11.90;;
14346;SDS011;7257;52.158;9.968;2022-12-24T00:23:08;17.02;;;12.15;;
14346;SDS011;7257;52.158;9.968;2022-12-24T00:23:30;17.05;;;12.20;;
14346;SDS011;7257;52.158;9.968;2022-12-24T00:23:51;15.52;;;11.48;;
14346;SDS011;7257;52.158;9.968;2022-12-24T00:24:13;14.50;;;11.13;;
14346;SDS011;7257;52.158;9.968;2022-12-24T00:24:34;14.75;;;10.40;;
14346;SDS011;7257;52.158;9.968;2022-12-24T00:24:55;15.27;;;10.95;;
14346;SDS011;7257;52.158;9.968;2022-12-24T00:25:16;14.32;;;11.10;;
14346;SDS011;7257;52.158;9.968;2022-12-24T00:25:38;15.07;;;11.55;;
14346;SDS011;7257;52.158;9.968;2022-12-24T00:25:59;15.07;;;11.32;;
14346;SDS011;7257;52.158;9.968;2022-12-24T00:26:20;14.55;;;11.52;;
14346;SDS011;7257;52.158;9.968;2022-12-24T00:26:42;13.63;;;11.48;;
14346;SDS011;7257;52.158;9.968;2022-12-24T00:27:02;13.60;;;10.95;;
14346;SDS011;7257;52.158;9.968;2022-12-24T00:27:24;14.40;;;10.35;;
14346;SDS011;7257;52.158;9.968;2022-12-24T00:27:45;13.32;;;9.57;;
14346;SDS011;7257;52.158;9.968;2022-12-24T00:28:06;14.00;;;9.73;;
14346;SDS011;7257;52.158;9.968;2022-12-24T00:28:27;13.80;;;9.82;;
14346;SDS011;7257;52.158;9.968;2022-12-24T00:28:49;15.45;;;10.90;;
14346;SDS011;7257;52.158;9.968;2022-12-24T00:29:10;16.00;;;11.65;;
14346;SDS011;7257;52.158;9.968;2022-12-24T00:29:31;14.50;;;11.52;;
14346;SDS011;7257;52.158;9.968;2022-12-24T00:29:52;13.60;;;11.43;;
14346;SDS011;7257;52.158;9.968;2022-12-24T00:30:14;12.98;;;11.18;;
14346;SDS011;7257;52.158;9.968;2022-12-24T00:30:38;12.75;;;10.18;;
14346;SDS011;7257;52.158;9.968;2022-12-24T00:31:05;13.52;;;10.60;;
14346;SDS011;7257;52.158;9.968;2022-12-24T00:31:27;14.27;;;10.80;;
14346;SDS011;7257;52.158;9.968;2022-12-24T00:31:49;14.32;;;10.05;;
14346;SDS011;7257;52.158;9.968;2022-12-24T00:32:10;16.58;;;10.30;;
14346;SDS011;7257;52.158;9.968;2022-12-24T00:32:31;16.77;;;10.77;;
14346;SDS011;7257;52.158;9.968;2022-12-24T00:32:52;15.77;;;11.10;;
14346;SDS011;7257;52.158;9.968;2022-12-24T00:33:13;14.48;;;10.73;;
14346;SDS011;7257;52.158;9.968;2022-12-24T00:33:35;15.73;;;11.13;;
14346;SDS011;7257;52.158;9.968;2022-12-24T00:33:56;16.00;;;11.00;;
14346;SDS011;7257;52.158;9.968;2022-12-24T00:34:17;15.15;;;10.30;;
14346;SDS011;7257;52.158;9.968;2022-12-24T00:34:38;13.85;;;9.30;;
14346;SDS011;7257;52.158;9.968;2022-12-24T00:35:00;12.60;;;9.13;;
14346;SDS011;7257;52.158;9.968;2022-12-24T00:35:21;11.77;;;9.05;;
14346;SDS011;7257;52.158;9.968;2022-12-24T00:35:42;11.63;;;9.75;;
14346;SDS011;7257;52.158;9.968;2022-12-24T00:36:04;13.20;;;10.05;;
14346;SDS011;7257;52.158;9.968;2022-12-24T00:36:26;13.18;;;10.10;;
14346;SDS011;7257;52.158;9.968;2022-12-24T00:36:48;13.32;;;9.80;;
14346;SDS011;7257;52.158;9.968;2022-12-24T00:37:08;14.60;;;9.48;;
14346;SDS011;7257;52.158;9.968;2022-12-24T00:37:29;16.63;;;10.27;;
14346;SDS011;7257;52.158;9.968;2022-12-24T00:37:50;15.85;;;9.95;;
14346;SDS011;7257;52.158;9.968;2022-12-24T00:38:11;15.27;;;10.30;;
14346;SDS011;7257;52.158;9.968;2022-12-24T00:38:32;13.68;;;9.60;;
14346;SDS011;7257;52.158;9.968;2022-12-24T00:38:54;13.68;;;9.75;;
14346;SDS011;7257;52.158;9.968;2022-12-24T00:39:15;13.45;;;9.70;;
14346;SDS011;7257;52.158;9.968;2022-12-24T00:39:36;14.90;;;10.77;;
14346;SDS011;7257;52.158;9.968;2022-12-24T00:39:57;14.88;;;11.18;;
14346;SDS011;7257;52.158;9.968;2022-12-24T00:40:19;13.73;;;10.70;;
14346;SDS011;7257;52.158;9.968;2022-12-24T00:40:40;13.35;;;10.15;;
14346;SDS011;7257;52.158;9.968;2022-12-24T00:41:01;12.85;;;9.90;;
14346;SDS011;7257;52.158;9.968;2022-12-24T00:41:23;12.05;;;9.57;;
14346;SDS011;7257;52.158;9.968;2022-12-24T00:41:47;12.60;;;8.80;;
14346;SDS011;7257;52.158;9.968;2022-12-24T00:42:07;12.70;;;8.20;;
14346;SDS011;7257;52.158;9.968;2022-12-24T00:42:28;13.38;;;8.40;;
14346;SDS011;7257;52.158;9.968;2022-12-24T00:42:49;12.07;;;8.27;;
14346;SDS011;7257;52.158;9.968;2022-12-24T00:43:10;11.02;;;8.32;;
14346;SDS011;7257;52.158;9.968;2022-12-24T00:43:32;11.40;;;8.38;;
14346;SDS011;7257;52.158;9.968;2022-12-24T00:43:54;11.98;;;8.77;;
14346;SDS011;7257;52.158;9.968;2022-12-24T00:44:15;11.85;;;9.07;;
14346;SDS011;7257;52.158;9.968;2022-12-24T00:44:36;11.25;;;9.13;;
14346;SDS011;7257;52.158;9.968;2022-12-24T00:44:57;11.40;;;9.05;;
14346;SDS011;7257;52.158;9.968;2022-12-24T00:45:19;11.63;;;8.95;;
14346;SDS011;7257;52.158;9.968;2022-12-24T00:45:41;11.75;;;8.88;;
14346;SDS011;7257;52.158;9.968;2022-12-24T00:46:02;11.68;;;8.90;;
14346;SDS011;7257;52.158;9.968;2022-12-24T00:46:24;11.77;;;9.23;;
14346;SDS011;7257;52.158;9.968;2022-12-24T00:46:47;12.43;;;8.90;;
14346;SDS011;7257;52.158;9.968;2022-12-24T00:47:08;11.75;;;8.50;;
14346;SDS011;7257;52.158;9.968;2022-12-24T00:47:28;11.40;;;8.55;;
14346;SDS011;7257;52.158;9.968;2022-12-24T00:47:49;10.27;;;8.13;;
14346;SDS011;7257;52.158;9.968;2022-12-24T00:48:11;10.18;;;7.90;;
14346;SDS011;7257;52.158;9.968;2022-12-24T00:48:32;9.82;;;8.02;;
14346;SDS011;7257;52.158;9.968;2022-12-24T00:48:53;9.60;;;8.60;;
14346;SDS011;7257;52.158;9.968;2022-12-24T00:49:14;10.95;;;9.38;;
14346;SDS011;7257;52.158;9.968;2022-12-24T00:49:36;11.10;;;9.63;;
14346;SDS011;7257;52.158;9.968;2022-12-24T00:49:58;10.95;;;8.75;;
14346;SDS011;7257;52.158;9.968;2022-12-24T00:50:18;9.27;;;7.65;;
14346;SDS011;7257;52.158;9.968;2022-12-24T00:50:39;10.05;;;7.32;;
14346;SDS011;7257;52.158;9.968;2022-12-24T00:51:00;10.27;;;7.35;;
14346;SDS011;7257;52.158;9.968;2022-12-24T00:51:22;11.00;;;7.75;;
14346;SDS011;7257;52.158;9.968;2022-12-24T00:51:45;11.27;;;8.60;;
14346;SDS011;7257;52.158;9.968;2022-12-24T00:52:06;11.30;;;8.50;;
14346;SDS011;7257;52.158;9.968;2022-12-24T00:52:27;10.88;;;8.32;;
14346;SDS011;7257;52.158;9.968;2022-12-24T00:52:48;9.93;;;7.70;;
14346;SDS011;7257;52.158;9.968;2022-12-24T00:53:08;11.03;;;7.70;;
14346;SDS011;7257;52.158;9.968;2022-12-24T00:53:29;11.02;;;7.53;;
14346;SDS011;7257;52.158;9.968;2022-12-24T00:53:52;10.50;;;7.30;;
14346;SDS011;7257;52.158;9.968;2022-12-24T00:54:13;9.05;;;7.53;;
14346;SDS011;7257;52.158;9.968;2022-12-24T00:54:34;9.30;;;7.75;;
14346;SDS011;7257;52.158;9.968;2022-12-24T00:54:55;11.40;;;8.38;;
14346;SDS011;7257;52.158;9.968;2022-12-24T00:55:17;11.38;;;9.05;;
14346;SDS011;7257;52.158;9.968;2022-12-24T00:55:38;11.38;;;8.75;;
14346;SDS011;7257;52.158;9.968;2022-12-24T00:55:59;9.63;;;7.88;;
14346;SDS011;7257;52.158;9.968;2022-12-24T00:56:20;10.05;;;7.38;;
14346;SDS011;7257;52.158;9.968;2022-12-24T00:56:41;10.80;;;7.85;;
14346;SDS011;7257;52.158;9.968;2022-12-24T00:57:03;10.68;;;7.38;;
14346;SDS011;7257;52.158;9.968;2022-12-24T00:57:24;9.02;;;6.60;;
14346;SDS011;7257;52.158;9.968;2022-12-24T00:57:45;9.38;;;7.25;;
14346;SDS011;7257;52.158;9.968;2022-12-24T00:58:06;10.65;;;8.23;;
14346;SDS011;7257;52.158;9.968;2022-12-24T00:58:27;10.73;;;7.80;;
14346;SDS011;7257;52.158;9.968;2022-12-24T00:58:49;8.77;;;6.60;;
14346;SDS011;7257;52.158;9.968;2022-12-24T00:59:10;8.30;;;6.80;;
14346;SDS011;7257;52.158;9.968;2022-12-24T00:59:31;8.70;;;7.15;;
14346;SDS011;7257;52.158;9.968;2022-12-24T00:59:52;9.50;;;7.65;;
14346;SDS011;7257;52.158;9.968;2022-12-24T01:00:14;9.25;;;7.60;;
14346;SDS011;7257;52.158;9.968;2022-12-24T01:00:37;9.48;;;7.47;;
14346;SDS011;7257;52.158;9.968;2022-12-24T01:00:59;9.50;;;7.45;;
14346;SDS011;7257;52.158;9.968;2022-12-24T01:01:23;9.70;;;6.95;;
14346;SDS011;7257;52.158;9.968;2022-12-24T01:01:46;9.20;;;6.70;;
14346;SDS011;7257;52.158;9.968;2022-12-24T01:02:07;8.80;;;7.10;;
14346;SDS011;7257;52.158;9.968;2022-12-24T01:02:28;8.82;;;7.20;;
14346;SDS011;7257;52.158;9.968;2022-12-24T01:02:49;8.88;;;6.88;;
14346;SDS011;7257;52.158;9.968;2022-12-24T01:03:10;8.60;;;6.35;;
14346;SDS011;7257;52.158;9.968;2022-12-24T01:03:31;8.48;;;6.25;;
14346;SDS011;7257;52.158;9.968;2022-12-24T01:03:56;8.18;;;5.97;;
14346;SDS011;7257;52.158;9.968;2022-12-24T01:04:32;7.45;;;5.72;;
14346;SDS011;7257;52.158;9.968;2022-12-24T01:05:12;7.15;;;5.68;;
14346;SDS011;7257;52.158;9.968;2022-12-24T01:05:33;7.57;;;6.78;;
14346;SDS011;7257;52.158;9.968;2022-12-24T01:05:54;7.93;;;7.13;;
14346;SDS011;7257;52.158;9.968;2022-12-24T01:06:15;8.27;;;7.45;;
14346;SDS011;7257;52.158;9.968;2022-12-24T01:06:37;8.13;;;6.55;;
14346;SDS011;7257;52.158;9.968;2022-12-24T01:06:58;7.70;;;5.95;;
14346;SDS011;7257;52.158;9.968;2022-12-24T01:07:19;7.95;;;6.03;;
14346;SDS011;7257;52.158;9.968;2022-12-24T01:07:42;8.20;;;5.97;;
14346;SDS011;7257;52.158;9.968;2022-12-24T01:08:03;8.68;;;6.22;;
14346;SDS011;7257;52.158;9.968;2022-12-24T01:08:24;8.45;;;6.30;;
14346;SDS011;7257;52.158;9.968;2022-12-24T01:08:48;8.07;;;6.40;;
14346;SDS011;7257;52.158;9.968;2022-12-24T01:09:10;8.50;;;6.40;;
14346;SDS011;7257;52.158;9.968;2022-12-24T01:09:32;8.27;;;6.20;;
14346;SDS011;7257;52.158;9.968;2022-12-24T01:09:53;7.80;;;6.10;;
14346;SDS011;7257;52.158;9.968;2022-12-24T01:10:16;6.70;;;5.60;;
14346;SDS011;7257;52.158;9.968;2022-12-24T01:10:38;7.45;;;6.03;;
14346;SDS011;7257;52.158;9.968;2022-12-24T01:11:01;7.88;;;6.68;;
14346;SDS011;7257;52.158;9.968;2022-12-24T01:11:22;8.63;;;6.65;;
14346;SDS011;7257;52.158;9.968;2022-12-24T01:11:43;8.50;;;5.93;;
14346;SDS011;7257;52.158;9.968;2022-12-24T01:12:05;8.23;;;5.65;;
14346;SDS011;7257;52.158;9.968;2022-12-24T01:12:26;8.38;;;6.18;;
14346;SDS011;7257;52.158;9.968;2022-12-24T01:12:48;7.55;;;6.15;;
14346;SDS011;7257;52.158;9.968;2022-12-24T01:13:09;7.88;;;6.20;;
14346;SDS011;7257;52.158;9.968;2022-12-24T01:13:30;7.72;;;6.13;;
14346;SDS011;7257;52.158;9.968;2022-12-24T01:13:51;8.00;;;6.22;;
14346;SDS011;7257;52.158;9.968;2022-12-24T01:14:13;8.30;;;6.22;;
14346;SDS011;7257;52.158;9.968;2022-12-24T01:14:35;7.17;;;5.60;;
14346;SDS011;7257;52.158;9.968;2022-12-24T01:14:56;7.10;;;6.10;;
14346;SDS011;7257;52.158;9.968;2022-12-24T01:15:17;7.77;;;6.97;;
14346;SDS011;7257;52.158;9.968;2022-12-24T01:15:38;8.38;;;7.53;;
14346;SDS011;7257;52.158;9.968;2022-12-24T01:16:02;8.07;;;7.28;;
14346;SDS011;7257;52.158;9.968;2022-12-24T01:16:23;7.15;;;6.35;;
14346;SDS011;7257;52.158;9.968;2022-12-24T01:16:44;7.00;;;6.15;;
14346;SDS011;7257;52.158;9.968;2022-12-24T01:17:05;8.25;;;6.53;;
14346;SDS011;7257;52.158;9.968;2022-12-24T01:17:26;8.93;;;7.22;;
14346;SDS011;7257;52.158;9.968;2022-12-24T01:17:48;9.05;;;7.28;;
14346;SDS011;7257;52.158;9.968;2022-12-24T01:18:09;8.35;;;6.60;;
14346;SDS011;7257;52.158;9.968;2022-12-24T01:18:30;7.68;;;5.60;;
14346;SDS011;7257;52.158;9.968;2022-12-24T01:18:51;7.20;;;5.20;;
14346;SDS011;7257;52.158;9.968;2022-12-24T01:19:13;7.22;;;5.63;;
14346;SDS011;7257;52.158;9.968;2022-12-24T01:19:34;7.90;;;6.20;;
14346;SDS011;7257;52.158;9.968;2022-12-24T01:19:55;8.63;;;6.60;;
14346;SDS011;7257;52.158;9.968;2022-12-24T01:20:16;9.23;;;7.53;;
14346;SDS011;7257;52.158;9.968;2022-12-24T01:20:37;9.20;;;7.40;;
14346;SDS011;7257;52.158;9.968;2022-12-24T01:21:00;8.85;;;7.43;;
14346;SDS011;7257;52.158;9.968;2022-12-24T01:21:22;8.27;;;6.90;;
14346;SDS011;7257;52.158;9.968;2022-12-24T01:21:43;7.90;;;6.82;;
14346;SDS011;7257;52.158;9.968;2022-12-24T01:22:04;8.25;;;7.25;;
14346;SDS011;7257;52.158;9.968;2022-12-24T01:22:26;8.50;;;7.32;;
14346;SDS011;7257;52.158;9.968;2022-12-24T01:22:49;7.95;;;6.55;;
14346;SDS011;7257;52.158;9.968;2022-12-24T01:23:10;8.07;;;6.22;;
14346;SDS011;7257;52.158;9.968;2022-12-24T01:23:31;8.10;;;6.10;;
14346;SDS011;7257;52.158;9.968;2022-12-24T01:23:53;8.75;;;6.55;;
14346;SDS011;7257;52.158;9.968;2022-12-24T01:24:14;8.50;;;6.40;;
14346;SDS011;7257;52.158;9.968;2022-12-24T01:24:36;8.05;;;5.90;;
14346;SDS011;7257;52.158;9.968;2022-12-24T01:24:57;7.82;;;5.80;;
14346;SDS011;7257;52.158;9.968;2022-12-24T01:25:19;7.50;;;6.15;;
14346;SDS011;7257;52.158;9.968;2022-12-24T01:25:40;8.05;;;6.88;;
14346;SDS011;7257;52.158;9.968;2022-12-24T01:26:01;8.30;;;7.40;;
14346;SDS011;7257;52.158;9.968;2022-12-24T01:26:23;7.80;;;6.97;;
14346;SDS011;7257;52.158;9.968;2022-12-24T01:26:45;8.80;;;6.40;;
14346;SDS011;7257;52.158;9.968;2022-12-24T01:27:06;8.32;;;6.35;;
14346;SDS011;7257;52.158;9.968;2022-12-24T01:27:27;8.45;;;6.78;;
14346;SDS011;7257;52.158;9.968;2022-12-24T01:27:48;7.55;;;6.85;;
14346;SDS011;7257;52.158;9.968;2022-12-24T01:28:10;7.15;;;6.45;;
14346;SDS011;7257;52.158;9.968;2022-12-24T01:28:31;7.13;;;6.13;;
14346;SDS011;7257;52.158;9.968;2022-12-24T01:28:53;8.20;;;6.00;;
14346;SDS011;7257;52.158;9.968;2022-12-24T01:29:14;8.93;;;6.03;;
14346;SDS011;7257;52.158;9.968;2022-12-24T01:29:35;9.48;;;6.63;;
14346;SDS011;7257;52.158;9.968;2022-12-24T01:29:57;8.75;;;6.40;;
14346;SDS011;7257;52.158;9.968;2022-12-24T01:30:18;8.70;;;6.85;;
14346;SDS011;7257;52.158;9.968;2022-12-24T01:30:39;8.48;;;7.28;;
14346;SDS011;7257;52.158;9.968;2022-12-24T01:31:01;8.82;;;7.53;;
14346;SDS011;7257;52.158;9.968;2022-12-24T01:31:28;8.10;;;6.20;;
14346;SDS011;7257;52.158;9.968;2022-12-24T01:31:50;7.93;;;5.88;;
14346;SDS011;7257;52.158;9.968;2022-12-24T01:32:13;7.45;;;6.05;;
14346;SDS011;7257;52.158;9.968;2022-12-24T01:32:34;7.55;;;5.95;;
14346;SDS011;7257;52.158;9.968;2022-12-24T01:32:55;7.30;;;5.75;;
14346;SDS011;7257;52.158;9.968;2022-12-24T01:33:16;7.57;;;5.60;;
14346;SDS011;7257;52.158;9.968;2022-12-24T01:33:38;7.60;;;5.40;;
14346;SDS011;7257;52.158;9.968;2022-12-24T01:33:59;7.70;;;5.00;;
14346;SDS011;7257;52.158;9.968;2022-12-24T01:34:20;8.55;;;5.45;;
14346;SDS011;7257;52.158;9.968;2022-12-24T01:34:44;9.13;;;5.53;;
14346;SDS011;7257;52.158;9.968;2022-12-24T01:35:06;8.32;;;5.80;;
14346;SDS011;7257;52.158;9.968;2022-12-24T01:35:29;8.95;;;6.35;;
14346;SDS011;7257;52.158;9.968;2022-12-24T01:35:49;9.40;;;6.63;;
14346;SDS011;7257;52.158;9.968;2022-12-24T01:36:11;8.52;;;6.35;;
14346;SDS011;7257;52.158;9.968;2022-12-24T01:36:32;7.60;;;6.60;;
14346;SDS011;7257;52.158;9.968;2022-12-24T01:36:54;7.95;;;6.93;;
14346;SDS011;7257;52.158;9.968;2022-12-24T01:37:15;8.10;;;7.03;;
14346;SDS011;7257;52.158;9.968;2022-12-24T01:37:36;8.18;;;6.45;;
14346;SDS011;7257;52.158;9.968;2022-12-24T01:37:57;7.55;;;6.15;;
14346;SDS011;7257;52.158;9.968;2022-12-24T01:38:18;7.80;;;5.80;;
14346;SDS011;7257;52.158;9.968;2022-12-24T01:38:40;7.68;;;5.80;;
14346;SDS011;7257;52.158;9.968;2022-12-24T01:39:01;7.90;;;5.93;;
14346;SDS011;7257;52.158;9.968;2022-12-24T01:39:22;7.25;;;5.82;;
14346;SDS011;7257;52.158;9.968;2022-12-24T01:39:43;7.05;;;5.88;;
14346;SDS011;7257;52.158;9.968;2022-12-24T01:40:05;6.45;;;5.53;;
14346;SDS011;7257;52.158;9.968;2022-12-24T01:40:46;8.43;;;5.95;;
14346;SDS011;7257;52.158;9.968;2022-12-24T01:41:25;8.02;;;5.82;;
14346;SDS011;7257;52.158;9.968;2022-12-24T01:42:11;7.68;;;5.85;;
14346;SDS011;7257;52.158;9.968;2022-12-24T01:42:57;7.65;;;6.30;;
14346;SDS011;7257;52.158;9.968;2022-12-24T01:43:33;6.93;;;5.43;;
14346;SDS011;7257;52.158;9.968;2022-12-24T01:43:54;7.18;;;5.80;;
14346;SDS011;7257;52.158;9.968;2022-12-24T01:44:19;6.78;;;5.35;;
14346;SDS011;7257;52.158;9.968;2022-12-24T01:44:42;7.13;;;5.72;;
14346;SDS011;7257;52.158;9.968;2022-12-24T01:46:07;8.00;;;6.30;;
14346;SDS011;7257;52.158;9.968;2022-12-24T01:46:33;7.72;;;6.80;;
14346;SDS011;7257;52.158;9.968;2022-12-24T01:46:55;8.10;;;6.05;;
14346;SDS011;7257;52.158;9.968;2022-12-24T01:47:23;8.55;;;6.10;;
14346;SDS011;7257;52.158;9.968;2022-12-24T01:47:46;9.07;;;6.47;;
14346;SDS011;7257;52.158;9.968;2022-12-24T01:48:11;9.00;;;6.60;;
14346;SDS011;7257;52.158;9.968;2022-12-24T01:48:42;8.25;;;6.30;;
14346;SDS011;7257;52.158;9.968;2022-12-24T01:49:07;8.10;;;6.15;;
14346;SDS011;7257;52.158;9.968;2022-12-24T01:49:32;7.55;;;6.00;;
14346;SDS011;7257;52.158;9.968;2022-12-24T01:49:55;7.07;;;5.50;;
14346;SDS011;7257;52.158;9.968;2022-12-24T01:50:18;7.75;;;6.43;;
14346;SDS011;7257;52.158;9.968;2022-12-24T01:50:39;7.63;;;6.50;;
14346;SDS011;7257;52.158;9.968;2022-12-24T01:51:02;8.27;;;7.22;;
14346;SDS011;7257;52.158;9.968;2022-12-24T01:51:29;8.73;;;7.00;;
14346;SDS011;7257;52.158;9.968;2022-12-24T01:51:55;8.75;;;7.07;;
14346;SDS011;7257;52.158;9.968;2022-12-24T01:52:19;8.63;;;6.53;;
14346;SDS011;7257;52.158;9.968;2022-12-24T01:52:42;8.13;;;6.10;;
14346;SDS011;7257;52.158;9.968;2022-12-24T01:53:04;8.20;;;6.22;;
14346;SDS011;7257;52.158;9.968;2022-12-24T01:53:26;7.68;;;6.07;;
14346;SDS011;7257;52.158;9.968;2022-12-24T01:53:48;7.28;;;5.95;;
14346;SDS011;7257;52.158;9.968;2022-12-24T01:54:17;7.47;;;5.60;;
14346;SDS011;7257;52.158;9.968;2022-12-24T01:54:43;7.82;;;6.03;;
14346;SDS011;7257;52.158;9.968;2022-12-24T01:55:08;8.70;;;6.53;;
14346;SDS011;7257;52.158;9.968;2022-12-24T01:55:32;9.32;;;6.53;;
14346;SDS011;7257;52.158;9.968;2022-12-24T01:55:52;10.63;;;6.90;;
14346;SDS011;7257;52.158;9.968;2022-12-24T01:56:14;10.07;;;6.63;;
14346;SDS011;7257;52.158;9.968;2022-12-24T01:56:39;9.45;;;6.65;;
14346;SDS011;7257;52.158;9.968;2022-12-24T01:57:06;8.45;;;5.70;;
14346;SDS011;7257;52.158;9.968;2022-12-24T01:57:30;8.75;;;6.40;;
14346;SDS011;7257;52.158;9.968;2022-12-24T01:57:58;9.30;;;7.32;;
14346;SDS011;7257;52.158;9.968;2022-12-24T01:58:19;8.52;;;7.30;;
14346;SDS011;7257;52.158;9.968;2022-12-24T01:58:45;7.80;;;6.57;;
14346;SDS011;7257;52.158;9.968;2022-12-24T01:59:11;7.50;;;6.38;;
14346;SDS011;7257;52.158;9.968;2022-12-24T01:59:34;7.28;;;6.00;;
14346;SDS011;7257;52.158;9.968;2022-12-24T01:59:57;7.10;;;5.97;;
14346;SDS011;7257;52.158;9.968;2022-12-24T02:00:21;7.03;;;5.97;;
14346;SDS011;7257;52.158;9.968;2022-12-24T02:00:42;8.40;;;6.72;;
14346;SDS011;7257;52.158;9.968;2022-12-24T02:01:03;8.40;;;7.25;;
14346;SDS011;7257;52.158;9.968;2022-12-24T02:01:26;8.93;;;7.32;;
14346;SDS011;7257;52.158;9.968;2022-12-24T02:01:48;8.25;;;6.80;;
14346;SDS011;7257;52.158;9.968;2022-12-24T02:02:10;8.00;;;5.97;;
14346;SDS011;7257;52.158;9.968;2022-12-24T02:02:32;8.93;;;6.88;;
14346;SDS011;7257;52.158;9.968;2022-12-24T02:02:54;9.90;;;7.50;;
14346;SDS011;7257;52.158;9.968;2022-12-24T02:03:15;9.98;;;8.23;;
14346;SDS011;7257;52.158;9.968;2022-12-24T02:03:36;9.50;;;7.53;;
14346;SDS011;7257;52.158;9.968;2022-12-24T02:03:57;9.50;;;6.87;;
14346;SDS011;7257;52.158;9.968;2022-12-24T02:04:22;10.07;;;6.07;;
14346;SDS011;7257;52.158;9.968;2022-12-24T02:04:49;8.98;;;5.95;;
14346;SDS011;7257;52.158;9.968;2022-12-24T02:05:17;7.20;;;5.60;;
14346;SDS011;7257;52.158;9.968;2022-12-24T02:05:45;7.20;;;5.55;;
14346;SDS011;7257;52.158;9.968;2022-12-24T02:06:07;8.85;;;6.53;;
14346;SDS011;7257;52.158;9.968;2022-12-24T02:06:31;8.57;;;6.43;;
14346;SDS011;7257;52.158;9.968;2022-12-24T02:06:52;7.72;;;6.05;;
14346;SDS011;7257;52.158;9.968;2022-12-24T02:07:14;7.80;;;5.95;;
14346;SDS011;7257;52.158;9.968;2022-12-24T02:07:35;8.10;;;6.35;;
14346;SDS011;7257;52.158;9.968;2022-12-24T02:07:56;10.38;;;7.10;;
14346;SDS011;7257;52.158;9.968;2022-12-24T02:08:18;9.73;;;7.00;;
14346;SDS011;7257;52.158;9.968;2022-12-24T02:08:41;9.07;;;6.63;;
14346;SDS011;7257;52.158;9.968;2022-12-24T02:09:02;8.63;;;7.07;;
14346;SDS011;7257;52.158;9.968;2022-12-24T02:09:23;9.63;;;7.93;;
14346;SDS011;7257;52.158;9.968;2022-12-24T02:09:44;8.73;;;7.82;;
14346;SDS011;7257;52.158;9.968;2022-12-24T02:10:07;8.80;;;7.20;;
14346;SDS011;7257;52.158;9.968;2022-12-24T02:10:29;8.98;;;6.50;;
14346;SDS011;7257;52.158;9.968;2022-12-24T02:10:51;8.40;;;6.05;;
14346;SDS011;7257;52.158;9.968;2022-12-24T02:11:13;7.60;;;5.55;;
14346;SDS011;7257;52.158;9.968;2022-12-24T02:11:35;6.55;;;5.05;;
14346;SDS011;7257;52.158;9.968;2022-12-24T02:11:58;8.07;;;6.30;;
14346;SDS011;7257;52.158;9.968;2022-12-24T02:12:21;9.30;;;6.32;;
14346;SDS011;7257;52.158;9.968;2022-12-24T02:12:42;9.30;;;5.93;;
14346;SDS011;7257;52.158;9.968;2022-12-24T02:13:04;9.55;;;6.07;;
14346;SDS011;7257;52.158;9.968;2022-12-24T02:13:26;8.40;;;6.63;;
14346;SDS011;7257;52.158;9.968;2022-12-24T02:13:48;8.50;;;6.60;;
14346;SDS011;7257;52.158;9.968;2022-12-24T02:14:13;7.50;;;5.88;;
14346;SDS011;7257;52.158;9.968;2022-12-24T02:14:35;7.18;;;5.15;;
14346;SDS011;7257;52.158;9.968;2022-12-24T02:14:57;6.43;;;4.68;;
14346;SDS011;7257;52.158;9.968;2022-12-24T02:15:18;6.35;;;4.80;;
14346;SDS011;7257;52.158;9.968;2022-12-24T02:15:45;6.50;;;5.18;;